sensor_id;sensor_type;location;lat;lon;timestamp;P1;durP1;ratioP1;P2;durP2;ratioP2
46122;SDS011;31856;-35.404;149.120;2022-08-03T01:58:14;2.50;;;1.55;;
46122;SDS011;31856;-35.404;149.120;2022-08-03T02:00:44;2.05;;;1.42;;
46122;SDS011;31856;-35.404;149.120;2022-08-03T02:03:14;1.77;;;1.30;;
46122;SDS011;31856;-35.404;149.120;2022-08-03T02:05:45;3.95;;;1.90;;
46122;SDS011;31856;-35.404;149.120;2022-08-03T02:08:37;1.50;;;1.25;;
46122;SDS011;31856;-35.404;149.120;2022-08-03T02:11:08;2.83;;;1.48;;
46122;SDS011;31856;-35.404;149.120;2022-08-03T02:13:38;2.72;;;1.33;;
46122;SDS011;31856;-35.404;149.120;2022-08-03T02:16:08;2.70;;;1.52;;
46122;SDS011;31856;-35.404;149.120;2022-08-03T02:18:39;2.63;;;1.67;;
46122;SDS011;31856;-35.404;149.120;2022-08-03T02:21:09;3.85;;;1.20;;
46122;SDS011;31856;-35.404;149.120;2022-08-03T02:24:01;2.67;;;1.17;;
46122;SDS011;31856;-35.404;149.120;2022-08-03T02:26:32;1.85;;;1.17;;
46122;SDS011;31856;-35.404;149.120;2022-08-03T02:29:11;3.75;;;1.30;;
46122;SDS011;31856;-35.404;149.120;2022-08-03T02:31:42;1.92;;;1.58;;
46122;SDS011;31856;-35.404;149.120;2022-08-03T02:34:13;2.05;;;1.10;;
46122;SDS011;31856;-35.404;149.120;2022-08-03T02:36:45;2.95;;;1.25;;
46122;SDS011;31856;-35.404;149.120;2022-08-03T02:39:16;1.50;;;1.00;;
46122;SDS011;31856;-35.404;149.120;2022-08-03T02:41:49;2.22;;;1.20;;
46122;SDS011;31856;-35.404;149.120;2022-08-03T02:44:22;3.92;;;1.30;;
46122;SDS011;31856;-35.404;149.120;2022-08-03T02:46:57;2.83;;;1.40;;
46122;SDS011;31856;-35.404;149.120;2022-08-03T02:49:29;2.42;;;1.45;;
46122;SDS011;31856;-35.404;149.120;2022-08-03T02:52:20;4.50;;;1.60;;
46122;SDS011;31856;-35.404;149.120;2022-08-03T02:54:55;3.55;;;1.70;;
46122;SDS011;31856;-35.404;149.120;2022-08-03T02:57:26;3.63;;;1.48;;
46122;SDS011;31856;-35.404;149.120;2022-08-03T02:59:57;3.60;;;1.23;;
46122;SDS011;31856;-35.404;149.120;2022-08-03T03:02:28;2.33;;;1.30;;
46122;SDS011;31856;-35.404;149.120;2022-08-03T03:04:58;2.65;;;1.08;;
46122;SDS011;31856;-35.404;149.120;2022-08-03T03:07:49;1.08;;;0.80;;
46122;SDS011;31856;-35.404;149.120;2022-08-03T03:10:21;1.23;;;0.90;;
46122;SDS011;31856;-35.404;149.120;2022-08-03T03:12:52;2.22;;;1.10;;
46122;SDS011;31856;-35.404;149.120;2022-08-03T03:15:24;4.38;;;1.02;;
46122;SDS011;31856;-35.404;149.120;2022-08-03T03:17:55;2.75;;;1.33;;
46122;SDS011;31856;-35.404;149.120;2022-08-03T03:20:26;2.25;;;0.85;;
46122;SDS011;31856;-35.404;149.120;2022-08-03T03:22:57;2.17;;;0.90;;
46122;SDS011;31856;-35.404;149.120;2022-08-03T03:25:31;1.50;;;1.00;;
46122;SDS011;31856;-35.404;149.120;2022-08-03T03:28:02;2.08;;;0.90;;
46122;SDS011;31856;-35.404;149.120;2022-08-03T03:30:33;4.07;;;0.80;;
46122;SDS011;31856;-35.404;149.120;2022-08-03T03:33:03;2.10;;;0.80;;
46122;SDS011;31856;-35.404;149.120;2022-08-03T03:35:33;3.95;;;1.00;;
46122;SDS011;31856;-35.404;149.120;2022-08-03T03:38:05;2.75;;;1.20;;
46122;SDS011;31856;-35.404;149.120;2022-08-03T03:40:35;1.35;;;1.00;;
46122;SDS011;31856;-35.404;149.120;2022-08-03T03:43:06;2.75;;;0.80;;
46122;SDS011;31856;-35.404;149.120;2022-08-03T03:45:36;1.70;;;1.00;;
46122;SDS011;31856;-35.404;149.120;2022-08-03T03:48:06;1.63;;;1.02;;
46122;SDS011;31856;-35.404;149.120;2022-08-03T03:50:36;1.65;;;0.80;;
46122;SDS011;31856;-35.404;149.120;2022-08-03T03:53:09;1.88;;;0.90;;
46122;SDS011;31856;-35.404;149.120;2022-08-03T05:08:07;4.43;;;2.15;;
46122;SDS011;31856;-35.404;149.120;2022-08-03T05:10:37;2.22;;;1.20;;
46122;SDS011;31856;-35.404;149.120;2022-08-03T05:13:08;4.85;;;1.02;;
46122;SDS011;31856;-35.404;149.120;2022-08-03T05:15:40;3.83;;;0.90;;
46122;SDS011;31856;-35.404;149.120;2022-08-03T05:18:10;1.73;;;1.23;;
46122;SDS011;31856;-35.404;149.120;2022-08-03T05:20:40;1.67;;;0.90;;
46122;SDS011;31856;-35.404;149.120;2022-08-03T05:23:10;2.53;;;0.90;;
46122;SDS011;31856;-35.404;149.120;2022-08-03T05:25:40;3.17;;;1.00;;
46122;SDS011;31856;-35.404;149.120;2022-08-03T05:28:15;2.80;;;1.02;;
46122;SDS011;31856;-35.404;149.120;2022-08-03T05:30:46;2.92;;;1.27;;
46122;SDS011;31856;-35.404;149.120;2022-08-03T05:33:17;2.20;;;1.27;;
46122;SDS011;31856;-35.404;149.120;2022-08-03T05:35:47;1.42;;;0.82;;
46122;SDS011;31856;-35.404;149.120;2022-08-03T05:38:29;2.95;;;1.20;;
46122;SDS011;31856;-35.404;149.120;2022-08-03T05:41:02;1.95;;;0.98;;
46122;SDS011;31856;-35.404;149.120;2022-08-03T05:43:50;4.40;;;1.00;;
46122;SDS011;31856;-35.404;149.120;2022-08-03T05:46:21;1.73;;;0.80;;
46122;SDS011;31856;-35.404;149.120;2022-08-03T05:48:51;2.83;;;0.95;;
46122;SDS011;31856;-35.404;149.120;2022-08-03T05:51:23;2.50;;;1.00;;
46122;SDS011;31856;-35.404;149.120;2022-08-03T05:53:53;3.83;;;1.00;;
46122;SDS011;31856;-35.404;149.120;2022-08-03T05:56:23;2.40;;;0.75;;
46122;SDS011;31856;-35.404;149.120;2022-08-03T05:58:53;5.90;;;1.10;;
46122;SDS011;31856;-35.404;149.120;2022-08-03T06:01:23;2.67;;;1.02;;
46122;SDS011;31856;-35.404;149.120;2022-08-03T06:03:53;0.98;;;0.80;;
46122;SDS011;31856;-35.404;149.120;2022-08-03T06:06:25;4.30;;;0.90;;
46122;SDS011;31856;-35.404;149.120;2022-08-03T06:08:58;3.13;;;0.95;;
46122;SDS011;31856;-35.404;149.120;2022-08-03T06:11:28;2.78;;;1.20;;
46122;SDS011;31856;-35.404;149.120;2022-08-03T06:13:58;3.10;;;0.90;;
46122;SDS011;31856;-35.404;149.120;2022-08-03T06:16:29;2.13;;;1.13;;
46122;SDS011;31856;-35.404;149.120;2022-08-03T06:18:59;2.20;;;0.90;;
46122;SDS011;31856;-35.404;149.120;2022-08-03T06:21:29;2.05;;;1.10;;
46122;SDS011;31856;-35.404;149.120;2022-08-03T06:23:58;2.47;;;0.90;;
46122;SDS011;31856;-35.404;149.120;2022-08-03T06:26:34;2.30;;;0.93;;
46122;SDS011;31856;-35.404;149.120;2022-08-03T06:29:04;2.17;;;0.90;;
46122;SDS011;31856;-35.404;149.120;2022-08-03T06:31:35;4.93;;;1.35;;
46122;SDS011;31856;-35.404;149.120;2022-08-03T06:34:06;2.65;;;1.00;;
46122;SDS011;31856;-35.404;149.120;2022-08-03T06:36:56;2.22;;;1.17;;
46122;SDS011;31856;-35.404;149.120;2022-08-03T06:39:28;1.77;;;1.13;;
46122;SDS011;31856;-35.404;149.120;2022-08-03T06:41:58;2.25;;;1.10;;
46122;SDS011;31856;-35.404;149.120;2022-08-03T06:44:30;3.63;;;1.05;;
46122;SDS011;31856;-35.404;149.120;2022-08-03T06:47:00;4.03;;;0.90;;
46122;SDS011;31856;-35.404;149.120;2022-08-03T06:49:30;2.55;;;0.90;;
46122;SDS011;31856;-35.404;149.120;2022-08-03T06:52:00;3.45;;;1.05;;
46122;SDS011;31856;-35.404;149.120;2022-08-03T06:54:32;1.65;;;1.05;;
46122;SDS011;31856;-35.404;149.120;2022-08-03T06:57:03;3.33;;;1.10;;
46122;SDS011;31856;-35.404;149.120;2022-08-03T06:59:33;2.20;;;1.08;;
46122;SDS011;31856;-35.404;149.120;2022-08-03T07:02:23;3.17;;;1.35;;
46122;SDS011;31856;-35.404;149.120;2022-08-03T07:04:54;2.42;;;1.10;;
46122;SDS011;31856;-35.404;149.120;2022-08-03T07:07:25;4.38;;;1.20;;
46122;SDS011;31856;-35.404;149.120;2022-08-03T07:09:55;2.42;;;1.33;;
46122;SDS011;31856;-35.404;149.120;2022-08-03T07:12:28;4.00;;;1.60;;
46122;SDS011;31856;-35.404;149.120;2022-08-03T07:14:58;2.45;;;1.40;;
46122;SDS011;31856;-35.404;149.120;2022-08-03T07:17:30;4.95;;;1.10;;
46122;SDS011;31856;-35.404;149.120;2022-08-03T07:20:02;3.67;;;1.30;;
46122;SDS011;31856;-35.404;149.120;2022-08-03T07:22:33;4.45;;;1.42;;
46122;SDS011;31856;-35.404;149.120;2022-08-03T07:25:04;2.40;;;1.30;;
46122;SDS011;31856;-35.404;149.120;2022-08-03T07:27:34;4.93;;;1.10;;
46122;SDS011;31856;-35.404;149.120;2022-08-03T07:30:05;3.47;;;1.00;;
46122;SDS011;31856;-35.404;149.120;2022-08-03T07:32:36;5.15;;;1.08;;
46122;SDS011;31856;-35.404;149.120;2022-08-03T07:35:16;2.45;;;1.20;;
46122;SDS011;31856;-35.404;149.120;2022-08-03T07:37:51;3.17;;;1.00;;
46122;SDS011;31856;-35.404;149.120;2022-08-03T07:40:22;2.55;;;1.05;;
46122;SDS011;31856;-35.404;149.120;2022-08-03T07:42:57;6.15;;;1.33;;
46122;SDS011;31856;-35.404;149.120;2022-08-03T07:45:28;5.07;;;1.13;;
46122;SDS011;31856;-35.404;149.120;2022-08-03T07:47:59;1.85;;;1.20;;
46122;SDS011;31856;-35.404;149.120;2022-08-03T07:50:34;1.77;;;1.10;;
46122;SDS011;31856;-35.404;149.120;2022-08-03T07:53:04;5.97;;;1.27;;
46122;SDS011;31856;-35.404;149.120;2022-08-03T07:55:34;2.10;;;1.13;;
46122;SDS011;31856;-35.404;149.120;2022-08-03T07:58:06;3.35;;;1.00;;
46122;SDS011;31856;-35.404;149.120;2022-08-03T08:00:38;2.17;;;1.00;;
46122;SDS011;31856;-35.404;149.120;2022-08-03T08:03:09;4.10;;;1.20;;
46122;SDS011;31856;-35.404;149.120;2022-08-03T08:05:40;2.70;;;1.15;;
46122;SDS011;31856;-35.404;149.120;2022-08-03T08:08:14;3.25;;;1.20;;
46122;SDS011;31856;-35.404;149.120;2022-08-03T08:10:45;2.80;;;1.13;;
46122;SDS011;31856;-35.404;149.120;2022-08-03T08:13:24;2.50;;;0.90;;
46122;SDS011;31856;-35.404;149.120;2022-08-03T08:15:54;2.60;;;1.10;;
46122;SDS011;31856;-35.404;149.120;2022-08-03T08:18:24;1.65;;;0.82;;
46122;SDS011;31856;-35.404;149.120;2022-08-03T08:20:58;2.22;;;0.98;;
46122;SDS011;31856;-35.404;149.120;2022-08-03T08:23:30;5.25;;;1.38;;
46122;SDS011;31856;-35.404;149.120;2022-08-03T08:26:09;2.58;;;1.10;;
46122;SDS011;31856;-35.404;149.120;2022-08-03T08:28:39;2.80;;;1.13;;
46122;SDS011;31856;-35.404;149.120;2022-08-03T08:31:09;4.57;;;1.10;;
46122;SDS011;31856;-35.404;149.120;2022-08-03T08:33:39;4.50;;;1.17;;
46122;SDS011;31856;-35.404;149.120;2022-08-03T08:36:29;3.17;;;1.02;;
46122;SDS011;31856;-35.404;149.120;2022-08-03T08:38:59;2.00;;;1.00;;
46122;SDS011;31856;-35.404;149.120;2022-08-03T08:41:29;3.30;;;1.10;;
46122;SDS011;31856;-35.404;149.120;2022-08-03T08:44:03;2.33;;;1.20;;
46122;SDS011;31856;-35.404;149.120;2022-08-03T08:46:35;2.80;;;1.10;;
46122;SDS011;31856;-35.404;149.120;2022-08-03T08:49:08;3.10;;;1.30;;
46122;SDS011;31856;-35.404;149.120;2022-08-03T08:51:38;2.05;;;1.00;;
46122;SDS011;31856;-35.404;149.120;2022-08-03T08:54:26;1.95;;;0.80;;
46122;SDS011;31856;-35.404;149.120;2022-08-03T08:56:57;2.53;;;1.20;;
46122;SDS011;31856;-35.404;149.120;2022-08-03T08:59:50;3.33;;;1.10;;
46122;SDS011;31856;-35.404;149.120;2022-08-03T09:02:25;2.13;;;1.05;;
46122;SDS011;31856;-35.404;149.120;2022-08-03T09:04:57;3.25;;;1.00;;
46122;SDS011;31856;-35.404;149.120;2022-08-03T09:07:33;2.00;;;0.90;;
46122;SDS011;31856;-35.404;149.120;2022-08-03T09:10:03;4.82;;;1.20;;
46122;SDS011;31856;-35.404;149.120;2022-08-03T09:15:41;2.15;;;1.02;;
46122;SDS011;31856;-35.404;149.120;2022-08-03T09:18:30;2.65;;;1.20;;
46122;SDS011;31856;-35.404;149.120;2022-08-03T09:24:02;4.45;;;1.10;;
46122;SDS011;31856;-35.404;149.120;2022-08-03T09:26:48;3.63;;;1.63;;
46122;SDS011;31856;-35.404;149.120;2022-08-03T09:29:19;4.20;;;1.70;;
46122;SDS011;31856;-35.404;149.120;2022-08-03T09:31:58;5.65;;;1.63;;
46122;SDS011;31856;-35.404;149.120;2022-08-03T09:34:28;2.22;;;1.00;;
46122;SDS011;31856;-35.404;149.120;2022-08-03T09:36:59;2.42;;;1.17;;
46122;SDS011;31856;-35.404;149.120;2022-08-03T09:39:29;3.95;;;0.95;;
46122;SDS011;31856;-35.404;149.120;2022-08-03T09:42:08;2.47;;;1.17;;
46122;SDS011;31856;-35.404;149.120;2022-08-03T09:44:41;2.10;;;1.20;;
46122;SDS011;31856;-35.404;149.120;2022-08-03T09:47:13;4.32;;;1.60;;
46122;SDS011;31856;-35.404;149.120;2022-08-03T09:49:55;3.58;;;1.00;;
46122;SDS011;31856;-35.404;149.120;2022-08-03T09:52:29;2.75;;;1.08;;
46122;SDS011;31856;-35.404;149.120;2022-08-03T09:55:16;2.53;;;1.00;;
46122;SDS011;31856;-35.404;149.120;2022-08-03T09:58:10;2.72;;;1.85;;
46122;SDS011;31856;-35.404;149.120;2022-08-03T10:00:54;2.47;;;1.20;;
46122;SDS011;31856;-35.404;149.120;2022-08-03T10:03:25;2.20;;;1.20;;
46122;SDS011;31856;-35.404;149.120;2022-08-03T10:05:56;3.25;;;1.10;;
46122;SDS011;31856;-35.404;149.120;2022-08-03T10:08:27;2.35;;;1.05;;
46122;SDS011;31856;-35.404;149.120;2022-08-03T10:10:59;1.33;;;1.00;;
46122;SDS011;31856;-35.404;149.120;2022-08-03T10:13:29;2.53;;;1.35;;
46122;SDS011;31856;-35.404;149.120;2022-08-03T10:15:59;1.70;;;1.10;;
46122;SDS011;31856;-35.404;149.120;2022-08-03T10:18:50;2.03;;;1.10;;
46122;SDS011;31856;-35.404;149.120;2022-08-03T10:21:20;2.00;;;0.95;;
46122;SDS011;31856;-35.404;149.120;2022-08-03T10:23:50;4.97;;;1.20;;
46122;SDS011;31856;-35.404;149.120;2022-08-03T10:26:22;5.60;;;1.77;;
46122;SDS011;31856;-35.404;149.120;2022-08-03T10:28:53;5.57;;;1.63;;
46122;SDS011;31856;-35.404;149.120;2022-08-03T10:31:25;2.30;;;1.17;;
46122;SDS011;31856;-35.404;149.120;2022-08-03T10:33:59;1.90;;;1.30;;
46122;SDS011;31856;-35.404;149.120;2022-08-03T10:36:30;2.60;;;1.25;;
46122;SDS011;31856;-35.404;149.120;2022-08-03T10:39:01;3.00;;;1.27;;
46122;SDS011;31856;-35.404;149.120;2022-08-03T10:41:42;4.25;;;1.30;;
46122;SDS011;31856;-35.404;149.120;2022-08-03T10:44:16;4.55;;;1.30;;
46122;SDS011;31856;-35.404;149.120;2022-08-03T10:46:47;4.28;;;1.38;;
46122;SDS011;31856;-35.404;149.120;2022-08-03T10:49:18;3.38;;;0.90;;
46122;SDS011;31856;-35.404;149.120;2022-08-03T10:52:01;3.03;;;1.17;;
46122;SDS011;31856;-35.404;149.120;2022-08-03T10:54:40;1.88;;;1.10;;
46122;SDS011;31856;-35.404;149.120;2022-08-03T10:57:48;4.97;;;1.20;;
46122;SDS011;31856;-35.404;149.120;2022-08-03T11:00:25;2.20;;;1.42;;
46122;SDS011;31856;-35.404;149.120;2022-08-03T11:05:35;2.08;;;1.00;;
46122;SDS011;31856;-35.404;149.120;2022-08-03T11:10:52;3.90;;;1.50;;
46122;SDS011;31856;-35.404;149.120;2022-08-03T11:13:23;2.20;;;1.00;;
46122;SDS011;31856;-35.404;149.120;2022-08-03T11:15:57;4.20;;;1.73;;
46122;SDS011;31856;-35.404;149.120;2022-08-03T11:18:32;3.83;;;1.42;;
46122;SDS011;31856;-35.404;149.120;2022-08-03T11:21:02;3.30;;;1.15;;
46122;SDS011;31856;-35.404;149.120;2022-08-03T11:24:05;5.90;;;1.20;;
46122;SDS011;31856;-35.404;149.120;2022-08-03T11:26:32;1.98;;;1.10;;
46122;SDS011;31856;-35.404;149.120;2022-08-03T11:31:51;4.35;;;1.30;;
46122;SDS011;31856;-35.404;149.120;2022-08-03T11:34:21;3.40;;;1.40;;
46122;SDS011;31856;-35.404;149.120;2022-08-03T11:39:41;3.63;;;1.52;;
46122;SDS011;31856;-35.404;149.120;2022-08-03T11:42:58;2.63;;;1.10;;
46122;SDS011;31856;-35.404;149.120;2022-08-03T11:45:03;1.50;;;1.00;;
46122;SDS011;31856;-35.404;149.120;2022-08-03T11:47:36;3.20;;;1.30;;
46122;SDS011;31856;-35.404;149.120;2022-08-03T11:50:17;3.90;;;1.10;;
46122;SDS011;31856;-35.404;149.120;2022-08-03T11:52:49;5.78;;;1.35;;
46122;SDS011;31856;-35.404;149.120;2022-08-03T11:55:19;2.33;;;1.20;;
46122;SDS011;31856;-35.404;149.120;2022-08-03T12:00:45;4.05;;;1.10;;
46122;SDS011;31856;-35.404;149.120;2022-08-03T12:03:17;3.40;;;1.55;;
46122;SDS011;31856;-35.404;149.120;2022-08-03T12:05:51;4.50;;;1.20;;
46122;SDS011;31856;-35.404;149.120;2022-08-03T12:08:29;4.35;;;1.10;;
46122;SDS011;31856;-35.404;149.120;2022-08-03T12:11:00;3.85;;;1.35;;
46122;SDS011;31856;-35.404;149.120;2022-08-03T12:16:26;3.67;;;1.83;;
46122;SDS011;31856;-35.404;149.120;2022-08-03T12:19:03;2.47;;;1.20;;
46122;SDS011;31856;-35.404;149.120;2022-08-03T12:21:34;2.53;;;0.98;;
46122;SDS011;31856;-35.404;149.120;2022-08-03T12:24:04;4.13;;;1.23;;
46122;SDS011;31856;-35.404;149.120;2022-08-03T12:26:44;4.15;;;1.48;;
46122;SDS011;31856;-35.404;149.120;2022-08-03T12:29:25;3.72;;;1.35;;
46122;SDS011;31856;-35.404;149.120;2022-08-03T12:31:56;3.22;;;2.33;;
46122;SDS011;31856;-35.404;149.120;2022-08-03T12:34:45;5.40;;;2.45;;
46122;SDS011;31856;-35.404;149.120;2022-08-03T12:37:19;3.45;;;1.80;;
46122;SDS011;31856;-35.404;149.120;2022-08-03T12:39:50;2.28;;;1.70;;
46122;SDS011;31856;-35.404;149.120;2022-08-03T12:42:33;2.13;;;1.63;;
46122;SDS011;31856;-35.404;149.120;2022-08-03T12:45:23;5.43;;;1.60;;
46122;SDS011;31856;-35.404;149.120;2022-08-03T12:47:54;4.88;;;1.50;;
46122;SDS011;31856;-35.404;149.120;2022-08-03T12:50:28;4.22;;;1.92;;
46122;SDS011;31856;-35.404;149.120;2022-08-03T12:52:59;4.63;;;1.60;;
46122;SDS011;31856;-35.404;149.120;2022-08-03T12:55:30;6.38;;;1.50;;
46122;SDS011;31856;-35.404;149.120;2022-08-03T12:58:33;2.17;;;1.13;;
46122;SDS011;31856;-35.404;149.120;2022-08-03T13:01:04;3.45;;;1.10;;
46122;SDS011;31856;-35.404;149.120;2022-08-03T13:06:15;2.08;;;1.35;;
46122;SDS011;31856;-35.404;149.120;2022-08-03T13:08:46;2.65;;;1.30;;
46122;SDS011;31856;-35.404;149.120;2022-08-03T13:11:20;2.47;;;1.10;;
46122;SDS011;31856;-35.404;149.120;2022-08-03T13:14:10;4.70;;;1.70;;
46122;SDS011;31856;-35.404;149.120;2022-08-03T13:16:45;4.07;;;1.40;;
46122;SDS011;31856;-35.404;149.120;2022-08-03T13:19:15;4.13;;;1.40;;
46122;SDS011;31856;-35.404;149.120;2022-08-03T13:21:45;2.50;;;1.20;;
46122;SDS011;31856;-35.404;149.120;2022-08-03T13:24:30;3.00;;;1.25;;
46122;SDS011;31856;-35.404;149.120;2022-08-03T13:27:02;4.00;;;1.50;;
46122;SDS011;31856;-35.404;149.120;2022-08-03T13:29:54;2.97;;;1.63;;
46122;SDS011;31856;-35.404;149.120;2022-08-03T13:32:24;3.05;;;1.20;;
46122;SDS011;31856;-35.404;149.120;2022-08-03T13:34:54;4.38;;;1.30;;
46122;SDS011;31856;-35.404;149.120;2022-08-03T13:37:24;4.45;;;1.20;;
46122;SDS011;31856;-35.404;149.120;2022-08-03T13:39:54;4.20;;;1.40;;
46122;SDS011;31856;-35.404;149.120;2022-08-03T13:42:29;5.60;;;1.75;;
46122;SDS011;31856;-35.404;149.120;2022-08-03T13:45:00;3.10;;;1.27;;
46122;SDS011;31856;-35.404;149.120;2022-08-03T13:47:30;4.63;;;1.20;;
46122;SDS011;31856;-35.404;149.120;2022-08-03T13:50:00;6.60;;;1.58;;
46122;SDS011;31856;-35.404;149.120;2022-08-03T13:52:31;2.75;;;1.70;;
46122;SDS011;31856;-35.404;149.120;2022-08-03T13:55:01;3.45;;;1.63;;
46122;SDS011;31856;-35.404;149.120;2022-08-03T13:57:32;2.10;;;1.20;;
46122;SDS011;31856;-35.404;149.120;2022-08-03T14:00:22;5.18;;;1.70;;
46122;SDS011;31856;-35.404;149.120;2022-08-03T14:02:56;4.75;;;1.60;;
46122;SDS011;31856;-35.404;149.120;2022-08-03T14:05:38;3.58;;;1.67;;
46122;SDS011;31856;-35.404;149.120;2022-08-03T14:08:08;3.72;;;1.83;;
46122;SDS011;31856;-35.404;149.120;2022-08-03T14:10:41;5.35;;;2.33;;
46122;SDS011;31856;-35.404;149.120;2022-08-03T14:13:11;4.30;;;2.10;;
46122;SDS011;31856;-35.404;149.120;2022-08-03T14:15:44;7.90;;;2.75;;
46122;SDS011;31856;-35.404;149.120;2022-08-03T14:18:20;6.97;;;2.80;;
46122;SDS011;31856;-35.404;149.120;2022-08-03T14:20:59;5.50;;;2.80;;
46122;SDS011;31856;-35.404;149.120;2022-08-03T14:23:32;4.97;;;2.30;;
46122;SDS011;31856;-35.404;149.120;2022-08-03T14:26:03;4.50;;;2.33;;
46122;SDS011;31856;-35.404;149.120;2022-08-03T14:28:34;3.17;;;1.35;;
46122;SDS011;31856;-35.404;149.120;2022-08-03T14:31:04;3.63;;;1.70;;
46122;SDS011;31856;-35.404;149.120;2022-08-03T14:33:54;5.00;;;1.60;;
46122;SDS011;31856;-35.404;149.120;2022-08-03T14:36:24;2.95;;;1.70;;
46122;SDS011;31856;-35.404;149.120;2022-08-03T14:38:54;3.47;;;1.70;;
46122;SDS011;31856;-35.404;149.120;2022-08-03T14:41:27;2.65;;;1.77;;
46122;SDS011;31856;-35.404;149.120;2022-08-03T14:43:57;4.82;;;1.83;;
46122;SDS011;31856;-35.404;149.120;2022-08-03T14:46:28;3.53;;;1.63;;
46122;SDS011;31856;-35.404;149.120;2022-08-03T14:58:51;5.82;;;1.55;;
46122;SDS011;31856;-35.404;149.120;2022-08-03T15:01:24;3.33;;;1.55;;
46122;SDS011;31856;-35.404;149.120;2022-08-03T15:04:24;4.22;;;1.95;;
46122;SDS011;31856;-35.404;149.120;2022-08-03T15:06:54;5.00;;;1.67;;
46122;SDS011;31856;-35.404;149.120;2022-08-03T15:09:24;3.92;;;1.88;;
46122;SDS011;31856;-35.404;149.120;2022-08-03T15:11:54;4.88;;;1.90;;
46122;SDS011;31856;-35.404;149.120;2022-08-03T15:14:24;2.45;;;1.30;;
46122;SDS011;31856;-35.404;149.120;2022-08-03T15:16:59;3.50;;;1.92;;
46122;SDS011;31856;-35.404;149.120;2022-08-03T15:19:30;2.42;;;1.50;;
46122;SDS011;31856;-35.404;149.120;2022-08-03T15:22:20;3.42;;;1.50;;
46122;SDS011;31856;-35.404;149.120;2022-08-03T15:25:01;5.72;;;2.00;;
46122;SDS011;31856;-35.404;149.120;2022-08-03T15:27:52;3.92;;;1.35;;
46122;SDS011;31856;-35.404;149.120;2022-08-03T15:30:30;2.85;;;1.30;;
46122;SDS011;31856;-35.404;149.120;2022-08-03T15:33:04;2.55;;;1.27;;
46122;SDS011;31856;-35.404;149.120;2022-08-03T15:35:34;4.75;;;1.80;;
46122;SDS011;31856;-35.404;149.120;2022-08-03T15:38:04;3.05;;;1.20;;
46122;SDS011;31856;-35.404;149.120;2022-08-03T15:40:35;4.30;;;1.42;;
46122;SDS011;31856;-35.404;149.120;2022-08-03T15:43:06;4.90;;;1.30;;
46122;SDS011;31856;-35.404;149.120;2022-08-03T15:45:36;4.90;;;1.80;;
46122;SDS011;31856;-35.404;149.120;2022-08-03T15:48:08;2.63;;;1.10;;
46122;SDS011;31856;-35.404;149.120;2022-08-03T15:50:38;3.22;;;1.63;;
46122;SDS011;31856;-35.404;149.120;2022-08-03T15:53:09;4.40;;;1.10;;
46122;SDS011;31856;-35.404;149.120;2022-08-03T15:55:39;2.75;;;1.15;;
46122;SDS011;31856;-35.404;149.120;2022-08-03T15:58:10;3.72;;;1.50;;
46122;SDS011;31856;-35.404;149.120;2022-08-03T16:01:00;2.92;;;1.60;;
46122;SDS011;31856;-35.404;149.120;2022-08-03T16:03:31;3.25;;;1.42;;
46122;SDS011;31856;-35.404;149.120;2022-08-03T16:06:04;5.00;;;1.52;;
46122;SDS011;31856;-35.404;149.120;2022-08-03T16:08:34;1.70;;;0.93;;
46122;SDS011;31856;-35.404;149.120;2022-08-03T16:11:04;3.60;;;1.00;;
46122;SDS011;31856;-35.404;149.120;2022-08-03T16:13:34;3.13;;;0.95;;
46122;SDS011;31856;-35.404;149.120;2022-08-03T16:16:24;2.00;;;1.00;;
46122;SDS011;31856;-35.404;149.120;2022-08-03T16:18:54;3.30;;;1.05;;
46122;SDS011;31856;-35.404;149.120;2022-08-03T16:21:31;0.90;;;0.80;;
46122;SDS011;31856;-35.404;149.120;2022-08-03T16:24:13;3.47;;;1.33;;
46122;SDS011;31856;-35.404;149.120;2022-08-03T16:26:54;1.98;;;0.80;;
46122;SDS011;31856;-35.404;149.120;2022-08-03T16:29:26;2.45;;;0.90;;
46122;SDS011;31856;-35.404;149.120;2022-08-03T16:31:56;1.40;;;0.90;;
46122;SDS011;31856;-35.404;149.120;2022-08-03T16:34:35;1.98;;;0.90;;
46122;SDS011;31856;-35.404;149.120;2022-08-03T16:37:06;2.85;;;1.08;;
46122;SDS011;31856;-35.404;149.120;2022-08-03T16:39:56;2.03;;;1.00;;
46122;SDS011;31856;-35.404;149.120;2022-08-03T16:42:26;1.70;;;1.08;;
46122;SDS011;31856;-35.404;149.120;2022-08-03T16:44:58;1.92;;;0.90;;
46122;SDS011;31856;-35.404;149.120;2022-08-03T16:47:28;2.50;;;0.95;;
46122;SDS011;31856;-35.404;149.120;2022-08-03T16:49:58;1.15;;;0.90;;
46122;SDS011;31856;-35.404;149.120;2022-08-03T16:52:34;1.30;;;0.82;;
46122;SDS011;31856;-35.404;149.120;2022-08-03T16:55:04;1.20;;;0.77;;
46122;SDS011;31856;-35.404;149.120;2022-08-03T16:57:41;1.20;;;0.70;;
46122;SDS011;31856;-35.404;149.120;2022-08-03T17:00:25;1.45;;;1.08;;
46122;SDS011;31856;-35.404;149.120;2022-08-03T17:03:01;1.65;;;0.75;;
46122;SDS011;31856;-35.404;149.120;2022-08-03T17:05:46;1.98;;;1.00;;
46122;SDS011;31856;-35.404;149.120;2022-08-03T17:08:17;5.30;;;1.35;;
46122;SDS011;31856;-35.404;149.120;2022-08-03T17:10:53;2.63;;;1.27;;
46122;SDS011;31856;-35.404;149.120;2022-08-03T17:13:23;1.63;;;1.10;;
46122;SDS011;31856;-35.404;149.120;2022-08-03T17:16:06;4.10;;;1.40;;
46122;SDS011;31856;-35.404;149.120;2022-08-03T17:18:37;1.70;;;1.20;;
46122;SDS011;31856;-35.404;149.120;2022-08-03T17:21:13;3.40;;;1.42;;
46122;SDS011;31856;-35.404;149.120;2022-08-03T17:23:54;2.05;;;1.20;;
46122;SDS011;31856;-35.404;149.120;2022-08-03T17:26:27;4.85;;;1.85;;
46122;SDS011;31856;-35.404;149.120;2022-08-03T17:28:58;2.75;;;1.30;;
46122;SDS011;31856;-35.404;149.120;2022-08-03T17:31:39;2.58;;;1.63;;
46122;SDS011;31856;-35.404;149.120;2022-08-03T17:34:16;2.90;;;1.52;;
46122;SDS011;31856;-35.404;149.120;2022-08-03T17:36:52;2.97;;;1.38;;
46122;SDS011;31856;-35.404;149.120;2022-08-03T17:39:30;3.65;;;1.52;;
46122;SDS011;31856;-35.404;149.120;2022-08-03T17:42:22;2.30;;;1.50;;
46122;SDS011;31856;-35.404;149.120;2022-08-03T17:47:30;2.55;;;1.55;;
46122;SDS011;31856;-35.404;149.120;2022-08-03T17:50:19;2.50;;;1.40;;
46122;SDS011;31856;-35.404;149.120;2022-08-03T17:53:02;2.30;;;1.50;;
46122;SDS011;31856;-35.404;149.120;2022-08-03T17:55:53;3.40;;;1.50;;
46122;SDS011;31856;-35.404;149.120;2022-08-03T18:01:02;3.05;;;1.55;;
46122;SDS011;31856;-35.404;149.120;2022-08-03T18:04:11;3.03;;;1.50;;
46122;SDS011;31856;-35.404;149.120;2022-08-03T18:06:42;2.85;;;1.60;;
46122;SDS011;31856;-35.404;149.120;2022-08-03T18:09:22;4.13;;;1.70;;
46122;SDS011;31856;-35.404;149.120;2022-08-03T18:12:15;3.78;;;1.60;;
46122;SDS011;31856;-35.404;149.120;2022-08-03T19:22:20;4.18;;;1.80;;
46122;SDS011;31856;-35.404;149.120;2022-08-03T19:24:55;3.73;;;1.80;;
46122;SDS011;31856;-35.404;149.120;2022-08-03T19:27:28;2.97;;;1.63;;
46122;SDS011;31856;-35.404;149.120;2022-08-03T19:30:00;2.63;;;1.50;;
46122;SDS011;31856;-35.404;149.120;2022-08-03T19:32:39;3.72;;;1.70;;
46122;SDS011;31856;-35.404;149.120;2022-08-03T19:35:14;4.88;;;1.40;;
46122;SDS011;31856;-35.404;149.120;2022-08-03T19:37:44;2.60;;;1.58;;
46122;SDS011;31856;-35.404;149.120;2022-08-03T19:40:17;5.22;;;1.50;;
46122;SDS011;31856;-35.404;149.120;2022-08-03T19:43:02;3.13;;;1.63;;
46122;SDS011;31856;-35.404;149.120;2022-08-03T19:45:36;3.20;;;1.70;;
46122;SDS011;31856;-35.404;149.120;2022-08-03T19:48:28;6.10;;;1.70;;